logo
Rechercher aéroport 
image banner adimage banner adimage banner ad
image banner ad

SSTQ - Silvestre

Situé à Pedra Branca Do Amapari, Brazil

ICAO - SSTQ, IATA -

Données fournies par Airmate  

Information générale

Coordonnées: N0°51'0" W51°54'26"
Élévation : 482 feet MSL.
Variation magnétique : -19.179028055° East
Voir autres Aéroports à Amapá

Données opérationnelles

Special qualification required
Heure actuelle UTC:
Heure actuelle locale:
Météo à : - ( 0 km )
METAR: ZMUB 242100Z VRB01MPS 9999 SCT030CB SCT033 14/10 Q1013 NOSIG RMK QFE652.8 75 MOP
Voir NOTAMs / SUP AIP / TFR affectant cet aéroport [VIEW]
Fréquences de communication: [VIEW]

Pistes:

Identifiant RWYQFULongueur (ft)Largeur (ft)SurfaceLDA (ft)
05334666EARTH
23334666EARTH

Coordonnées de l'aéroport

Adresse: Pedra Branca Do Amapari Brazil

Vue satellite de SSTQ